Wrightsville, Ohio
Current Conditions -  °F | °C
As of 2:15 PM on Monday 22 Dec 2014 (Local Time) from KFGX Reporting Station
Broken Clouds Broken Clouds  
Wind Chill: 52°   Ceiling: 3900
Heat Index: 52°   Visibility: 10mi
Dew Point: 40°   Wind: 6mph
Humidity: 65%   Direction: 130°SE
Pressure: 29.89"   Gusts: NA
Location:  38.7042°N, 83.6081°W
Report Text: KFGX 221915Z AUTO 13005KT 10SM BKN039 11/05 A2989 RMK AO2 T01110047
Loading
Personal Weather Stations






























Interactive Weather Map New forecast layout! Learn more

10-Day Weather Forecast

Advertisements
Track Severe Weather on mobile